createdAt,value
2023-01-25T00:01:09.609Z,69.43
2023-01-25T00:03:37.216Z,91.65
2023-01-25T00:06:05.093Z,99.53
2023-01-25T00:08:34.774Z,85.88
2023-01-25T00:11:02.383Z,104.15
2023-01-25T00:13:30.203Z,122.40
2023-01-25T00:16:03.318Z,107.13
2023-01-25T00:18:31.275Z,95.70
2023-01-25T00:20:58.849Z,94.28
2023-01-25T00:23:26.513Z,90.38
2023-01-25T00:25:57.876Z,84.80
2023-01-25T00:28:26.158Z,105.53
2023-01-25T00:30:54.358Z,97.70
2023-01-25T00:33:35.976Z,103.95
2023-01-25T00:36:03.580Z,101.10
2023-01-25T00:38:35.780Z,90.00
2023-01-25T00:41:03.606Z,91.07
2023-01-25T00:43:31.498Z,89.13
2023-01-25T00:46:01.587Z,85.80
2023-01-25T00:48:29.418Z,87.68
2023-01-25T00:51:02.571Z,79.73
2023-01-25T00:53:30.454Z,73.72
2023-01-25T00:55:58.095Z,74.95
2023-01-25T00:58:25.979Z,80.10
2023-01-25T01:00:54.315Z,90.85
2023-01-25T01:03:21.888Z,81.20
2023-01-25T01:05:49.554Z,84.55
2023-01-25T01:08:18.804Z,70.15
2023-01-25T01:10:46.509Z,75.40
2023-01-25T01:13:14.322Z,75.75
2023-01-25T01:15:42.067Z,65.33
2023-01-25T01:18:09.888Z,68.57
2023-01-25T01:20:38.466Z,68.28
2023-01-25T01:23:06.372Z,55.35
2023-01-25T01:25:35.505Z,61.92
2023-01-25T01:28:03.092Z,62.27
2023-01-25T01:30:30.908Z,64.25
2023-01-25T01:32:58.536Z,57.70
2023-01-25T01:35:26.339Z,58.53
2023-01-25T01:37:54.394Z,59.67
2023-01-25T01:40:22.322Z,65.10
2023-01-25T01:43:01.726Z,60.90
2023-01-25T01:45:52.302Z,66.28
2023-01-25T01:48:22.791Z,62.67
2023-01-25T01:50:54.014Z,59.70
2023-01-25T01:53:21.950Z,58.17
2023-01-25T01:55:49.622Z,57.17
2023-01-25T01:58:18.923Z,59.53
2023-01-25T02:00:46.641Z,59.17
2023-01-25T02:03:14.984Z,53.85
2023-01-25T02:05:45.778Z,48.60
2023-01-25T02:08:14.881Z,51.53
2023-01-25T02:10:43.533Z,61.42
2023-01-25T02:13:11.582Z,57.53
2023-01-25T02:15:44.711Z,84.07
2023-01-25T02:18:12.983Z,76.57
2023-01-25T02:20:41.662Z,72.18
2023-01-25T02:23:14.237Z,70.30
2023-01-25T02:25:47.296Z,59.28
2023-01-25T02:28:18.239Z,49.95
2023-01-25T02:30:46.200Z,50.77
2023-01-25T02:33:14.163Z,53.30
2023-01-25T02:35:43.038Z,63.90
2023-01-25T02:38:11.538Z,59.45
2023-01-25T02:40:44.321Z,55.83
2023-01-25T02:43:13.323Z,52.93
2023-01-25T02:45:41.230Z,56.40
2023-01-25T02:48:08.850Z,60.38
2023-01-25T02:50:36.489Z,61.60
2023-01-25T02:53:04.560Z,77.05
2023-01-25T02:55:32.252Z,69.03
2023-01-25T02:57:59.906Z,79.05
2023-01-25T03:00:29.401Z,83.57
2023-01-25T03:02:57.346Z,81.80
2023-01-25T03:05:24.949Z,84.85
2023-01-25T03:07:53.119Z,95.53
2023-01-25T03:10:20.748Z,112.65
2023-01-25T03:12:48.892Z,111.47
2023-01-25T03:15:16.784Z,98.50
2023-01-25T03:17:45.847Z,98.88
2023-01-25T03:20:13.651Z,104.10
2023-01-25T03:22:41.452Z,108.63
2023-01-25T03:25:09.899Z,109.05
2023-01-25T03:27:37.724Z,87.65
2023-01-25T03:30:05.815Z,114.15
2023-01-25T03:32:35.162Z,115.63
2023-01-25T03:35:04.185Z,93.93
2023-01-25T03:37:31.975Z,90.30
2023-01-25T03:39:59.575Z,103.20
2023-01-25T03:42:27.474Z,77.80
2023-01-25T03:44:55.061Z,82.97
2023-01-25T03:47:22.977Z,105.40
2023-01-25T03:49:50.603Z,101.68
2023-01-25T03:52:19.790Z,102.72
2023-01-25T03:54:47.456Z,93.25
2023-01-25T03:57:15.053Z,100.40
2023-01-25T03:59:42.681Z,98.57
2023-01-25T04:02:10.500Z,100.32
2023-01-25T04:04:38.066Z,108.43
2023-01-25T04:07:05.688Z,98.47
2023-01-25T04:09:34.662Z,99.30
2023-01-25T04:12:02.321Z,104.25
2023-01-25T04:14:43.601Z,118.35
2023-01-25T04:17:13.097Z,147.80
2023-01-25T04:19:40.713Z,104.85
2023-01-25T04:22:08.971Z,108.70
2023-01-25T04:24:38.024Z,105.82
2023-01-25T04:27:05.675Z,101.57
2023-01-25T04:29:41.175Z,98.10
2023-01-25T04:32:09.875Z,108.22
2023-01-25T04:34:37.647Z,104.17
2023-01-25T04:37:05.265Z,88.85
2023-01-25T04:39:32.935Z,93.38
2023-01-25T04:42:01.865Z,88.82
2023-01-25T04:44:29.406Z,96.22
2023-01-25T04:46:57.241Z,91.83
2023-01-25T04:49:24.803Z,94.03
2023-01-25T04:51:53.149Z,91.55
2023-01-25T04:54:20.901Z,111.30
2023-01-25T04:56:48.476Z,102.30
2023-01-25T04:59:17.440Z,88.10
2023-01-25T05:01:45.214Z,94.30
2023-01-25T05:04:12.802Z,93.07
2023-01-25T05:06:40.351Z,87.90
2023-01-25T05:09:08.298Z,86.53
2023-01-25T05:11:35.856Z,95.43
2023-01-25T05:14:03.423Z,90.07
2023-01-25T05:16:32.694Z,88.05
2023-01-25T05:19:00.362Z,78.93
2023-01-25T05:21:46.463Z,80.10
2023-01-25T05:24:14.278Z,71.90
2023-01-25T05:26:58.431Z,83.53
2023-01-25T05:29:26.093Z,73.80
2023-01-25T05:31:55.979Z,67.63
2023-01-25T05:34:23.826Z,68.35
2023-01-25T05:36:52.059Z,70.27
2023-01-25T05:39:19.597Z,58.38
2023-01-25T05:41:47.816Z,60.58
2023-01-25T05:44:17.278Z,64.25
2023-01-25T05:46:44.815Z,65.72
2023-01-25T05:49:14.576Z,55.70
2023-01-25T05:51:42.676Z,53.35
2023-01-25T05:54:15.785Z,50.42
2023-01-25T05:56:43.695Z,48.17
2023-01-25T05:59:12.026Z,47.22
2023-01-25T06:01:40.113Z,48.17
2023-01-25T06:04:07.790Z,54.30
2023-01-25T06:06:36.732Z,50.58
2023-01-25T06:09:04.502Z,43.75
2023-01-25T06:11:32.076Z,45.40
2023-01-25T06:13:59.640Z,52.27
2023-01-25T06:16:27.739Z,51.70
2023-01-25T06:18:55.514Z,54.58
2023-01-25T06:21:23.248Z,48.00
2023-01-25T06:23:53.176Z,43.72
2023-01-25T06:26:26.008Z,36.50
2023-01-25T06:28:54.288Z,45.90
2023-01-25T06:31:23.501Z,47.03
2023-01-25T06:33:52.455Z,47.10
2023-01-25T06:36:20.869Z,46.42
2023-01-25T06:38:49.377Z,40.33
2023-01-25T06:41:18.707Z,45.15
2023-01-25T06:43:46.989Z,39.95
2023-01-25T06:46:14.828Z,36.83
2023-01-25T06:48:43.008Z,36.53
2023-01-25T06:51:11.985Z,43.20
2023-01-25T06:53:40.677Z,37.75
2023-01-25T06:56:10.935Z,35.10
2023-01-25T06:58:41.114Z,40.20
2023-01-25T07:01:11.804Z,40.38
2023-01-25T07:03:40.123Z,28.90
2023-01-25T07:06:08.674Z,33.28
2023-01-25T07:08:37.984Z,31.08
2023-01-25T07:11:13.710Z,26.08
2023-01-25T07:13:43.534Z,30.67
2023-01-25T07:16:13.359Z,37.50
2023-01-25T07:18:42.225Z,28.85
2023-01-25T07:21:11.074Z,33.42
2023-01-25T07:23:39.236Z,36.30
2023-01-25T07:26:07.641Z,35.38
2023-01-25T07:28:35.395Z,28.00
2023-01-25T07:31:07.880Z,30.25
2023-01-25T07:33:35.975Z,44.33
2023-01-25T07:36:03.717Z,33.35
2023-01-25T07:38:31.436Z,42.85
2023-01-25T07:40:59.046Z,43.20
2023-01-25T07:43:29.978Z,45.83
2023-01-25T07:46:01.580Z,45.83
2023-01-25T07:48:30.702Z,48.10
2023-01-25T07:51:12.780Z,54.63
2023-01-25T07:53:40.767Z,49.77
2023-01-25T07:56:08.765Z,51.83
2023-01-25T07:58:37.314Z,46.33
2023-01-25T08:01:08.528Z,49.42
2023-01-25T08:03:38.304Z,48.00
2023-01-25T08:06:06.222Z,50.70
2023-01-25T08:08:34.606Z,54.15
2023-01-25T08:11:03.172Z,62.13
2023-01-25T08:13:31.828Z,58.90
2023-01-25T08:15:59.465Z,59.25
2023-01-25T08:18:28.503Z,56.87
2023-01-25T08:21:00.112Z,53.83
2023-01-25T08:23:28.689Z,59.38
2023-01-25T08:25:56.517Z,56.60
2023-01-25T08:28:25.083Z,59.17
2023-01-25T08:30:57.445Z,56.03
2023-01-25T08:33:25.542Z,59.70
2023-01-25T08:35:57.178Z,55.30
2023-01-25T08:38:26.378Z,62.33
2023-01-25T08:40:54.315Z,58.90
2023-01-25T08:43:21.881Z,58.50
2023-01-25T08:45:56.810Z,55.72
2023-01-25T08:48:26.996Z,62.50
2023-01-25T08:50:54.622Z,50.13
2023-01-25T08:53:22.350Z,54.55
2023-01-25T08:55:53.087Z,53.53
2023-01-25T08:58:22.299Z,53.53
2023-01-25T09:00:50.456Z,60.03
2023-01-25T09:03:18.673Z,57.72
2023-01-25T09:05:47.937Z,52.58
2023-01-25T09:08:15.611Z,56.40
2023-01-25T09:10:43.354Z,56.38
2023-01-25T09:13:12.903Z,64.40
2023-01-25T09:15:40.626Z,61.00
2023-01-25T09:18:08.266Z,54.72
2023-01-25T09:20:35.885Z,57.47
2023-01-25T09:23:03.640Z,54.47
2023-01-25T09:25:31.500Z,49.67
2023-01-25T09:28:00.916Z,40.63
2023-01-25T09:30:45.485Z,57.70
2023-01-25T09:33:17.196Z,54.17
2023-01-25T09:35:53.307Z,51.00
2023-01-25T09:38:21.106Z,50.65
2023-01-25T09:40:54.037Z,48.28
2023-01-25T09:43:31.651Z,45.13
2023-01-25T09:46:02.599Z,44.87
2023-01-25T09:48:37.987Z,47.33
2023-01-25T09:51:10.043Z,48.97
2023-01-25T09:53:38.537Z,47.88
2023-01-25T09:56:10.722Z,47.70
2023-01-25T09:58:40.584Z,48.93
2023-01-25T10:01:19.487Z,51.38
2023-01-25T10:03:53.328Z,43.08
2023-01-25T10:06:23.592Z,42.92
2023-01-25T10:08:54.855Z,49.15
2023-01-25T10:11:24.375Z,34.27
2023-01-25T10:13:57.560Z,41.85
2023-01-25T10:16:31.233Z,38.47
2023-01-25T10:19:06.852Z,38.85
2023-01-25T10:21:36.430Z,47.47
2023-01-25T10:24:15.526Z,39.10
2023-01-25T10:26:49.636Z,36.30
2023-01-25T10:29:18.955Z,38.72
2023-01-25T10:31:50.609Z,41.13
2023-01-25T10:34:20.829Z,39.38
2023-01-25T10:36:50.278Z,43.90
2023-01-25T10:39:18.995Z,48.67
2023-01-25T10:41:52.763Z,36.53
2023-01-25T10:44:24.419Z,42.53
2023-01-25T10:46:59.079Z,46.28
2023-01-25T10:49:30.082Z,47.70
2023-01-25T10:52:06.367Z,44.47
2023-01-25T10:54:34.107Z,50.22
2023-01-25T10:57:01.912Z,41.90
2023-01-25T10:59:29.905Z,42.47
2023-01-25T11:02:19.309Z,47.00
2023-01-25T11:04:48.825Z,53.80
2023-01-25T11:07:27.415Z,54.72
2023-01-25T11:09:55.281Z,50.10
2023-01-25T11:12:23.051Z,47.13
2023-01-25T11:14:51.249Z,50.40
2023-01-25T11:17:26.224Z,56.20
2023-01-25T11:20:17.101Z,54.25
2023-01-25T11:22:52.197Z,54.00
2023-01-25T11:25:26.168Z,52.95
2023-01-25T11:27:56.258Z,60.77
2023-01-25T11:30:23.903Z,57.90
2023-01-25T11:32:53.006Z,58.45
2023-01-25T11:35:28.538Z,52.28
2023-01-25T11:38:04.784Z,55.72
2023-01-25T11:40:35.634Z,62.70
2023-01-25T11:43:06.879Z,60.97
2023-01-25T11:45:52.997Z,61.60
2023-01-25T11:48:36.735Z,64.65
2023-01-25T11:51:08.663Z,60.40
2023-01-25T11:53:47.650Z,63.37
2023-01-25T11:56:18.813Z,57.08
2023-01-25T11:59:03.155Z,69.68
2023-01-25T12:01:35.850Z,55.83
2023-01-25T12:04:22.062Z,72.93
2023-01-25T12:06:55.672Z,62.53
2023-01-25T12:09:41.264Z,67.38
2023-01-25T12:12:12.289Z,72.90
2023-01-25T12:14:46.888Z,66.28
2023-01-25T12:17:29.112Z,66.28
2023-01-25T12:20:10.219Z,66.57
2023-01-25T12:22:52.139Z,59.08
2023-01-25T12:25:22.701Z,72.63
2023-01-25T12:27:59.687Z,67.55
2023-01-25T12:30:32.793Z,72.05
2023-01-25T12:33:13.938Z,57.63
2023-01-25T12:35:49.744Z,79.35
2023-01-25T12:38:20.788Z,74.43
2023-01-25T12:40:50.526Z,85.78
2023-01-25T12:43:22.152Z,89.75
2023-01-25T12:45:51.799Z,91.67
2023-01-25T12:48:21.883Z,79.00
2023-01-25T12:50:53.740Z,63.50
2023-01-25T12:53:22.743Z,91.63
2023-01-25T12:55:50.883Z,83.78
2023-01-25T12:58:32.879Z,82.93
2023-01-25T13:01:10.446Z,98.63
2023-01-25T13:03:41.782Z,98.15
2023-01-25T13:06:16.705Z,102.10
2023-01-25T13:08:50.009Z,95.50
2023-01-25T13:11:20.354Z,96.20
2023-01-25T13:13:48.307Z,98.78
2023-01-25T13:16:33.291Z,116.07
2023-01-25T13:19:01.257Z,109.53
2023-01-25T13:21:45.471Z,112.78
2023-01-25T13:24:14.980Z,111.80
2023-01-25T13:26:48.854Z,125.28
2023-01-25T13:29:35.359Z,114.63
2023-01-25T13:32:03.820Z,108.00
2023-01-25T13:34:49.380Z,110.28
2023-01-25T13:37:20.300Z,120.10
2023-01-25T13:39:48.537Z,138.77
2023-01-25T13:42:23.692Z,118.45
2023-01-25T13:44:55.048Z,116.63
2023-01-25T13:47:23.853Z,143.45
2023-01-25T13:49:54.975Z,129.50
2023-01-25T13:52:24.717Z,140.52
2023-01-25T13:54:55.051Z,135.13
2023-01-25T13:57:29.006Z,131.15
2023-01-25T14:00:09.886Z,157.60
2023-01-25T14:02:39.599Z,160.60
2023-01-25T14:05:08.250Z,179.57
2023-01-25T14:07:38.320Z,168.48
2023-01-25T14:10:10.614Z,181.30
2023-01-25T14:12:39.860Z,189.98
2023-01-25T14:15:21.887Z,180.47
2023-01-25T14:18:04.358Z,178.52
2023-01-25T14:20:32.112Z,153.40
2023-01-25T14:23:01.456Z,155.85
2023-01-25T14:25:29.036Z,140.75
2023-01-25T14:28:01.464Z,165.73
2023-01-25T14:30:30.134Z,173.35
2023-01-25T14:32:59.326Z,151.52
2023-01-25T14:35:49.459Z,162.07
2023-01-25T14:38:27.674Z,159.23
2023-01-25T14:40:56.695Z,172.90
2023-01-25T14:43:24.564Z,143.13
2023-01-25T14:45:52.186Z,162.93
2023-01-25T14:48:40.656Z,156.90
2023-01-25T14:51:21.347Z,171.60
2023-01-25T14:53:52.079Z,157.57
2023-01-25T14:56:24.750Z,176.18
2023-01-25T14:58:59.526Z,179.30
2023-01-25T15:01:30.646Z,180.25
2023-01-25T15:03:58.649Z,173.43
2023-01-25T15:06:26.395Z,175.60
2023-01-25T15:08:55.732Z,176.77
2023-01-25T15:11:39.054Z,187.18
2023-01-25T15:14:15.225Z,171.68
2023-01-25T15:16:48.501Z,189.30
2023-01-25T15:19:22.681Z,172.57
2023-01-25T15:21:50.713Z,173.02
2023-01-25T15:24:19.763Z,168.52
2023-01-25T15:26:50.403Z,138.55
2023-01-25T15:29:20.916Z,179.48
2023-01-25T15:31:49.341Z,164.47
2023-01-25T15:34:18.209Z,162.65
2023-01-25T15:36:46.357Z,161.15
2023-01-25T15:39:15.297Z,157.63
2023-01-25T15:41:44.607Z,159.07
2023-01-25T15:44:12.491Z,162.63
2023-01-25T15:46:42.490Z,160.00
2023-01-25T15:49:14.663Z,157.43
2023-01-25T15:51:42.339Z,175.52
2023-01-25T15:54:10.248Z,183.35
2023-01-25T15:56:38.667Z,159.53
2023-01-25T15:59:08.958Z,163.00
2023-01-25T16:01:38.388Z,169.45
2023-01-25T16:04:06.372Z,171.68
2023-01-25T16:06:40.040Z,156.93
2023-01-25T16:09:13.874Z,149.23
2023-01-25T16:11:41.646Z,164.38
2023-01-25T16:14:10.676Z,152.88
2023-01-25T16:16:40.429Z,160.43
2023-01-25T16:19:08.175Z,163.95
2023-01-25T16:21:35.807Z,148.03
2023-01-25T16:24:03.552Z,151.85
2023-01-25T16:26:31.379Z,148.93
2023-01-25T16:28:59.266Z,163.68
2023-01-25T16:31:32.776Z,169.43
2023-01-25T16:34:01.144Z,158.50
2023-01-25T16:36:28.873Z,160.43
2023-01-25T16:38:56.566Z,171.57
2023-01-25T16:41:24.266Z,181.25
2023-01-25T16:43:55.317Z,176.38
2023-01-25T16:46:24.308Z,191.13
2023-01-25T16:48:54.927Z,173.38
2023-01-25T16:51:23.563Z,170.00
2023-01-25T16:53:52.213Z,176.18
2023-01-25T16:56:20.660Z,164.60
2023-01-25T16:58:48.547Z,180.90
2023-01-25T17:01:17.161Z,148.27
2023-01-25T17:03:45.299Z,141.07
2023-01-25T17:06:19.617Z,176.35
2023-01-25T17:08:47.639Z,181.95
2023-01-25T17:11:15.654Z,180.53
2023-01-25T17:13:46.300Z,193.45
2023-01-25T17:16:14.324Z,175.77
2023-01-25T17:18:41.962Z,189.18
2023-01-25T17:21:09.704Z,185.68
2023-01-25T17:23:39.571Z,191.37
2023-01-25T17:26:07.603Z,195.68
2023-01-25T17:28:35.852Z,223.30
2023-01-25T17:31:04.492Z,179.38
2023-01-25T17:33:32.161Z,219.23
2023-01-25T17:38:49.609Z,199.90
2023-01-25T17:41:17.754Z,166.63
2023-01-25T17:43:45.329Z,197.35
2023-01-25T17:46:14.035Z,191.38
2023-01-25T17:48:42.761Z,202.07
2023-01-25T17:51:10.379Z,208.55
2023-01-25T17:53:38.263Z,228.32
2023-01-25T17:56:08.753Z,214.90
2023-01-25T17:58:38.822Z,205.55
2023-01-25T18:01:16.175Z,203.67
2023-01-25T18:03:44.467Z,175.88
2023-01-25T18:06:12.458Z,211.65
2023-01-25T18:08:41.348Z,264.42
2023-01-25T18:11:11.424Z,227.65
2023-01-25T18:13:42.137Z,226.23
2023-01-25T18:16:10.442Z,282.10
2023-01-25T18:18:38.169Z,355.15
2023-01-25T18:21:06.842Z,367.27
2023-01-25T18:23:34.467Z,329.92
2023-01-25T18:26:05.294Z,265.17
2023-01-25T18:28:38.606Z,246.50
2023-01-25T18:31:07.039Z,252.75
2023-01-25T18:33:34.629Z,249.93
2023-01-25T18:36:04.000Z,226.27
2023-01-25T18:38:32.781Z,249.70
2023-01-25T18:41:00.589Z,233.07
2023-01-25T18:43:28.863Z,193.48
2023-01-25T18:45:59.465Z,201.02
2023-01-25T18:48:31.382Z,201.00
2023-01-25T18:50:59.705Z,178.37
2023-01-25T18:53:27.689Z,160.88
2023-01-25T18:56:02.588Z,141.77
2023-01-25T18:58:30.690Z,168.07
2023-01-25T19:01:04.437Z,183.65
2023-01-25T19:03:32.054Z,165.73
2023-01-25T19:05:59.887Z,161.43
2023-01-25T19:08:30.677Z,153.30
2023-01-25T19:11:01.598Z,157.43
2023-01-25T19:13:32.023Z,140.88
2023-01-25T19:16:00.675Z,135.20
2023-01-25T19:18:32.130Z,100.78
2023-01-25T19:20:59.770Z,111.88
2023-01-25T19:23:28.073Z,71.30
2023-01-25T19:25:55.825Z,96.57
2023-01-25T19:28:24.613Z,70.10
2023-01-25T19:30:53.546Z,69.55
2023-01-25T19:33:21.194Z,66.00
2023-01-25T19:36:02.517Z,67.97
2023-01-25T19:38:30.232Z,71.35
2023-01-25T19:41:04.975Z,66.43
2023-01-25T19:43:32.573Z,51.42
2023-01-25T19:46:10.196Z,66.85
2023-01-25T19:48:38.202Z,57.35
2023-01-25T19:51:11.844Z,55.90
2023-01-25T19:53:39.548Z,38.53
2023-01-25T19:56:07.908Z,28.27
2023-01-25T19:58:35.858Z,29.75
2023-01-25T20:01:07.713Z,27.05
2023-01-25T20:03:35.929Z,25.92
2023-01-25T20:06:04.084Z,29.07
2023-01-25T20:08:33.485Z,24.70
2023-01-25T20:11:01.284Z,20.90
2023-01-25T20:13:29.244Z,13.65
2023-01-25T20:15:57.439Z,13.80
2023-01-25T20:18:25.137Z,17.03
2023-01-25T20:20:56.640Z,11.27
2023-01-25T20:23:24.532Z,15.82
2023-01-25T20:26:00.222Z,15.52
2023-01-25T20:28:30.156Z,10.40
2023-01-25T20:30:59.363Z,11.93
2023-01-25T20:33:27.212Z,10.85
2023-01-25T20:35:59.654Z,13.40
2023-01-25T20:38:30.311Z,15.43
2023-01-25T20:41:03.330Z,16.15
2023-01-25T20:43:31.592Z,9.87
2023-01-25T20:46:01.720Z,9.52
2023-01-25T20:48:31.157Z,13.40
2023-01-25T20:51:01.905Z,11.15
2023-01-25T20:53:29.934Z,10.88
2023-01-25T20:56:00.336Z,11.60
2023-01-25T20:58:30.387Z,9.35
2023-01-25T21:00:57.973Z,12.32
2023-01-25T21:03:29.920Z,13.35
2023-01-25T21:05:59.378Z,17.98
2023-01-25T21:08:27.104Z,12.43
2023-01-25T21:10:55.710Z,14.25
2023-01-25T21:13:24.003Z,17.55
2023-01-25T21:16:03.800Z,12.20
2023-01-25T21:18:32.270Z,13.27
2023-01-25T21:21:01.085Z,16.47
2023-01-25T21:23:29.740Z,16.00
2023-01-25T21:25:57.915Z,14.32
2023-01-25T21:28:26.676Z,13.02
2023-01-25T21:30:54.370Z,10.77
2023-01-25T21:33:23.664Z,18.67
2023-01-25T21:35:54.315Z,11.52
2023-01-25T21:38:22.364Z,19.35
2023-01-25T21:40:50.007Z,17.33
2023-01-25T21:43:18.978Z,19.13
2023-01-25T21:46:04.181Z,8.93
2023-01-25T21:48:50.631Z,18.85
2023-01-25T21:51:36.622Z,18.80
2023-01-25T21:54:05.335Z,19.10
2023-01-25T21:56:33.027Z,16.80
2023-01-25T21:59:00.635Z,13.33
2023-01-25T22:01:28.436Z,27.08
2023-01-25T22:03:58.006Z,17.00
2023-01-25T22:06:25.595Z,15.95
2023-01-25T22:08:53.436Z,21.60
2023-01-25T22:11:21.225Z,13.23
2023-01-25T22:13:49.343Z,12.10
2023-01-25T22:16:17.014Z,19.40
2023-01-25T22:18:44.782Z,14.15
2023-01-25T22:21:16.765Z,19.60
2023-01-25T22:23:44.844Z,13.47
2023-01-25T22:26:13.285Z,16.50
2023-01-25T22:28:46.131Z,23.35
2023-01-25T22:31:14.300Z,17.45
2023-01-25T22:33:41.928Z,23.50
2023-01-25T22:38:56.829Z,22.50
2023-01-25T22:41:25.516Z,15.77
2023-01-25T22:43:53.232Z,12.25
2023-01-25T22:46:21.894Z,18.23
2023-01-25T22:48:49.633Z,19.00
2023-01-25T22:51:18.208Z,18.35
2023-01-25T22:53:46.487Z,16.55
2023-01-25T22:56:19.111Z,18.17
2023-01-25T22:58:47.345Z,26.98
2023-01-25T23:01:16.319Z,19.27
2023-01-25T23:03:43.967Z,18.35
2023-01-25T23:06:13.247Z,20.85
2023-01-25T23:08:40.932Z,23.25
2023-01-25T23:11:09.566Z,16.48
2023-01-25T23:13:39.867Z,14.67
2023-01-25T23:16:08.395Z,18.38
2023-01-25T23:18:52.363Z,15.00
2023-01-25T23:21:21.115Z,14.98
2023-01-25T23:23:49.039Z,13.02
2023-01-25T23:26:17.609Z,21.63
2023-01-25T23:28:50.602Z,17.08
2023-01-25T23:31:18.709Z,17.33
2023-01-25T23:33:46.839Z,13.68
2023-01-25T23:36:15.216Z,19.85
2023-01-25T23:38:43.185Z,14.30
2023-01-25T23:41:11.266Z,17.73
2023-01-25T23:43:38.999Z,12.23
2023-01-25T23:46:11.126Z,18.83
2023-01-25T23:48:38.981Z,17.02
2023-01-25T23:51:06.677Z,13.30
2023-01-25T23:53:34.374Z,17.15
2023-01-25T23:56:03.096Z,12.50
2023-01-25T23:58:31.027Z,14.50
